createdAt,value
2022-07-26T00:02:13.091Z,1.80
2022-07-26T00:05:18.957Z,2.00
2022-07-26T00:08:23.046Z,2.20
2022-07-26T00:11:27.123Z,2.67
2022-07-26T00:14:30.340Z,2.50
2022-07-26T00:17:33.104Z,2.53
2022-07-26T00:20:36.377Z,2.50
2022-07-26T00:24:01.501Z,2.33
2022-07-26T00:27:22.819Z,2.20
2022-07-26T00:30:46.778Z,2.77
2022-07-26T00:33:49.561Z,2.07
2022-07-26T00:36:52.527Z,2.50
2022-07-26T00:39:56.629Z,2.03
2022-07-26T00:42:59.387Z,1.90
2022-07-26T00:46:03.081Z,1.70
2022-07-26T00:49:06.311Z,1.73
2022-07-26T00:52:11.483Z,1.70
2022-07-26T00:55:16.400Z,1.60
2022-07-26T00:58:20.227Z,1.50
2022-07-26T01:01:22.947Z,2.07
2022-07-26T01:04:25.762Z,1.57
2022-07-26T01:07:29.575Z,1.80
2022-07-26T01:10:33.861Z,1.80
2022-07-26T01:13:37.089Z,1.90
2022-07-26T01:16:39.945Z,1.60
2022-07-26T01:19:43.337Z,1.63
2022-07-26T01:22:47.422Z,1.80
2022-07-26T01:25:50.853Z,1.67
2022-07-26T01:28:55.072Z,1.70
2022-07-26T01:31:58.233Z,1.90
2022-07-26T01:35:00.945Z,2.07
2022-07-26T01:38:06.190Z,1.80
2022-07-26T01:41:09.456Z,1.67
2022-07-26T01:44:12.589Z,1.60
2022-07-26T01:47:15.738Z,1.90
2022-07-26T01:50:19.816Z,2.00
2022-07-26T01:53:24.514Z,2.43
2022-07-26T01:56:27.249Z,2.03
2022-07-26T01:59:30.429Z,2.40
2022-07-26T02:02:33.317Z,2.10
2022-07-26T02:05:36.536Z,2.10
2022-07-26T02:08:40.725Z,2.10
2022-07-26T02:11:43.459Z,2.40
2022-07-26T02:14:46.202Z,2.30
2022-07-26T02:17:49.436Z,2.30
2022-07-26T02:20:52.216Z,2.30
2022-07-26T02:23:56.312Z,2.20
2022-07-26T02:27:00.366Z,2.20
2022-07-26T02:30:03.210Z,2.20
2022-07-26T02:33:06.250Z,2.10
2022-07-26T02:36:09.008Z,2.40
2022-07-26T02:39:14.450Z,2.33
2022-07-26T02:42:17.155Z,2.03
2022-07-26T02:45:20.243Z,2.23
2022-07-26T02:48:23.023Z,2.30
2022-07-26T02:51:25.787Z,1.90
2022-07-26T02:54:30.232Z,2.20
2022-07-26T02:57:40.377Z,2.30
2022-07-26T03:00:49.258Z,2.10
2022-07-26T03:03:52.027Z,2.47
2022-07-26T03:06:55.182Z,2.50
2022-07-26T03:09:59.260Z,2.40
2022-07-26T03:13:02.621Z,2.60
2022-07-26T03:16:05.909Z,2.50
2022-07-26T03:19:09.092Z,2.60
2022-07-26T03:22:12.388Z,2.73
2022-07-26T03:25:16.670Z,2.60
2022-07-26T03:28:19.840Z,2.63
2022-07-26T03:31:23.919Z,2.40
2022-07-26T03:34:26.930Z,2.53
2022-07-26T03:37:45.370Z,2.43
2022-07-26T03:40:50.503Z,2.43
2022-07-26T03:43:53.613Z,2.70
2022-07-26T03:46:56.372Z,2.60
2022-07-26T03:49:59.575Z,2.37
2022-07-26T03:53:02.260Z,2.70
2022-07-26T03:56:30.172Z,2.70
2022-07-26T03:59:32.907Z,2.60
2022-07-26T04:02:35.697Z,2.60
2022-07-26T04:05:39.316Z,3.00
2022-07-26T04:08:43.313Z,2.90
2022-07-26T04:11:48.623Z,3.33
2022-07-26T04:14:51.355Z,3.00
2022-07-26T04:17:54.055Z,2.63
2022-07-26T04:20:57.278Z,2.63
2022-07-26T04:24:00.098Z,2.60
2022-07-26T04:27:04.851Z,2.60
2022-07-26T04:30:14.266Z,2.63
2022-07-26T04:33:18.347Z,3.00
2022-07-26T04:36:21.114Z,2.60
2022-07-26T04:39:25.023Z,2.63
2022-07-26T04:42:29.354Z,2.77
2022-07-26T04:45:32.350Z,2.40
2022-07-26T04:48:36.419Z,2.70
2022-07-26T04:51:39.178Z,2.70
2022-07-26T04:54:41.890Z,2.60
2022-07-26T04:57:47.577Z,2.50
2022-07-26T05:04:13.572Z,2.60
2022-07-26T05:07:16.727Z,2.33
2022-07-26T05:10:20.707Z,2.20
2022-07-26T05:13:29.547Z,2.43
2022-07-26T05:16:33.083Z,2.63
2022-07-26T05:19:36.659Z,2.33
2022-07-26T05:22:39.484Z,2.17
2022-07-26T05:25:42.219Z,2.57
2022-07-26T05:28:46.732Z,2.20
2022-07-26T05:31:50.245Z,2.47
2022-07-26T05:34:53.106Z,2.53
2022-07-26T05:37:59.234Z,2.30
2022-07-26T05:41:01.946Z,2.47
2022-07-26T05:44:07.219Z,2.60
2022-07-26T05:47:10.176Z,2.40
2022-07-26T05:50:13.083Z,2.50
2022-07-26T05:53:15.800Z,3.30
2022-07-26T05:56:18.536Z,2.90
2022-07-26T05:59:22.596Z,2.83
2022-07-26T06:02:25.449Z,2.90
2022-07-26T06:05:28.229Z,2.90
2022-07-26T06:08:31.509Z,3.13
2022-07-26T06:11:34.259Z,2.40
2022-07-26T06:14:38.933Z,2.57
2022-07-26T06:17:42.157Z,2.77
2022-07-26T06:20:48.237Z,2.47
2022-07-26T06:23:51.315Z,2.20
2022-07-26T06:26:58.197Z,2.50
2022-07-26T06:30:11.216Z,1.80
2022-07-26T06:33:14.089Z,2.40
2022-07-26T06:36:16.845Z,1.70
2022-07-26T06:39:20.239Z,1.40
2022-07-26T06:42:22.956Z,1.87
2022-07-26T06:45:27.739Z,1.00
2022-07-26T06:48:30.521Z,1.43
2022-07-26T06:51:33.312Z,1.50
2022-07-26T06:54:36.330Z,1.60
2022-07-26T06:57:44.835Z,1.30
2022-07-26T07:00:55.292Z,1.27
2022-07-26T07:03:58.469Z,1.40
2022-07-26T07:07:06.123Z,1.27
2022-07-26T07:10:09.750Z,1.23
2022-07-26T07:13:12.726Z,1.13
2022-07-26T07:16:17.324Z,1.20
2022-07-26T07:19:20.141Z,1.13
2022-07-26T07:22:23.223Z,1.30
2022-07-26T07:25:30.313Z,1.43
2022-07-26T07:28:39.066Z,1.20
2022-07-26T07:31:48.581Z,1.03
2022-07-26T07:34:52.096Z,1.20
2022-07-26T07:37:54.965Z,1.57
2022-07-26T07:40:58.581Z,1.00
2022-07-26T07:44:01.595Z,1.13
2022-07-26T07:47:06.343Z,1.13
2022-07-26T07:50:10.046Z,1.20
2022-07-26T07:53:12.918Z,1.23
2022-07-26T07:56:15.610Z,0.93
2022-07-26T07:59:18.493Z,1.17
2022-07-26T08:02:22.882Z,1.07
2022-07-26T08:05:25.578Z,1.43
2022-07-26T08:08:28.413Z,1.20
2022-07-26T08:11:31.330Z,1.00
2022-07-26T08:14:36.607Z,1.40
2022-07-26T08:17:41.751Z,1.30
2022-07-26T08:20:44.829Z,1.40
2022-07-26T08:23:47.617Z,1.20
2022-07-26T08:26:51.830Z,1.30
2022-07-26T08:29:54.588Z,1.10
2022-07-26T08:32:59.612Z,1.10
2022-07-26T08:36:03.136Z,1.10
2022-07-26T08:39:06.217Z,1.07
2022-07-26T08:42:15.745Z,1.10
2022-07-26T08:45:23.751Z,1.93
2022-07-26T08:48:27.931Z,1.00
2022-07-26T08:51:32.246Z,1.03
2022-07-26T08:54:35.315Z,1.13
2022-07-26T08:57:38.060Z,0.40
2022-07-26T09:00:41.593Z,0.83
2022-07-26T09:03:46.863Z,1.27
2022-07-26T09:07:00.479Z,0.80
2022-07-26T09:10:06.345Z,1.37
2022-07-26T09:13:09.083Z,1.20
2022-07-26T09:16:12.689Z,1.03
2022-07-26T09:19:19.744Z,1.30
2022-07-26T09:22:22.473Z,1.07
2022-07-26T09:25:26.592Z,0.87
2022-07-26T09:28:30.982Z,0.90
2022-07-26T09:31:33.991Z,0.77
2022-07-26T09:34:44.389Z,0.80
2022-07-26T09:37:54.719Z,0.90
2022-07-26T09:40:58.271Z,0.73
2022-07-26T09:44:02.786Z,0.80
2022-07-26T09:47:05.824Z,0.97
2022-07-26T09:50:17.710Z,1.10
2022-07-26T09:53:22.750Z,0.90
2022-07-26T09:56:25.501Z,0.93
2022-07-26T09:59:29.765Z,0.80
2022-07-26T10:02:33.829Z,1.00
2022-07-26T10:05:38.242Z,1.60
2022-07-26T10:08:43.926Z,1.00
2022-07-26T10:11:51.789Z,0.80
2022-07-26T10:14:59.941Z,0.77
2022-07-26T10:18:03.319Z,0.90
2022-07-26T10:21:21.974Z,0.83
2022-07-26T10:24:26.419Z,0.80
2022-07-26T10:27:39.017Z,0.90
2022-07-26T10:30:42.175Z,0.90
2022-07-26T10:33:47.604Z,1.03
2022-07-26T10:36:58.957Z,0.73
2022-07-26T10:40:21.183Z,1.17
2022-07-26T10:43:41.577Z,0.73
2022-07-26T10:47:11.236Z,0.70
2022-07-26T10:50:33.119Z,0.80
2022-07-26T10:53:37.171Z,1.00
2022-07-26T10:56:40.966Z,0.80
2022-07-26T10:59:55.736Z,0.90
2022-07-26T11:03:00.848Z,0.70
2022-07-26T11:06:13.124Z,0.77
2022-07-26T11:09:20.951Z,0.80
2022-07-26T11:12:24.193Z,0.97
2022-07-26T11:15:30.862Z,0.80
2022-07-26T11:18:36.126Z,0.90
2022-07-26T11:21:40.512Z,0.90
2022-07-26T11:24:45.655Z,0.80
2022-07-26T11:28:00.209Z,0.60
2022-07-26T11:31:03.864Z,0.70
2022-07-26T11:34:08.345Z,0.80
2022-07-26T11:37:15.768Z,0.82
2022-07-26T11:40:20.085Z,0.90
2022-07-26T11:43:22.875Z,0.90
2022-07-26T11:46:34.666Z,0.70
2022-07-26T11:50:12.518Z,0.70
2022-07-26T11:53:00.416Z,0.80
2022-07-26T11:56:13.157Z,0.80
2022-07-26T11:59:15.994Z,0.80
2022-07-26T12:02:19.279Z,0.80
2022-07-26T12:05:23.818Z,0.88
2022-07-26T12:08:26.698Z,0.85
2022-07-26T12:11:42.007Z,0.80
2022-07-26T12:14:44.737Z,0.90
2022-07-26T12:18:00.813Z,0.75
2022-07-26T12:21:07.539Z,0.90
2022-07-26T12:24:12.851Z,0.80
2022-07-26T12:27:20.385Z,0.90
2022-07-26T12:30:23.717Z,0.98
2022-07-26T12:33:26.497Z,0.80
2022-07-26T12:36:30.575Z,0.75
2022-07-26T12:39:33.631Z,1.40
2022-07-26T12:42:39.458Z,0.93
2022-07-26T12:45:42.282Z,1.20
2022-07-26T12:48:46.881Z,0.98
2022-07-26T12:51:50.159Z,0.90
2022-07-26T12:54:54.212Z,0.80
2022-07-26T12:57:58.538Z,0.82
2022-07-26T13:01:02.306Z,0.88
2022-07-26T13:04:05.579Z,0.90
2022-07-26T13:07:08.342Z,1.00
2022-07-26T13:13:36.593Z,0.63
2022-07-26T13:16:39.353Z,0.90
2022-07-26T13:19:42.305Z,0.75
2022-07-26T13:22:44.997Z,0.80
2022-07-26T13:25:47.720Z,0.93
2022-07-26T13:28:51.794Z,1.13
2022-07-26T13:31:55.662Z,1.00
2022-07-26T13:34:58.352Z,0.98
2022-07-26T13:38:00.992Z,0.90
2022-07-26T13:41:04.299Z,0.80
2022-07-26T13:44:08.829Z,0.95
2022-07-26T13:47:11.733Z,1.10
2022-07-26T13:50:14.404Z,0.80
2022-07-26T13:53:17.295Z,1.00
2022-07-26T13:56:20.512Z,1.23
2022-07-26T13:59:25.138Z,1.23
2022-07-26T14:02:27.939Z,1.33
2022-07-26T14:05:30.681Z,1.05
2022-07-26T14:08:33.429Z,1.00
2022-07-26T14:11:36.827Z,1.20
2022-07-26T14:14:40.839Z,0.90
2022-07-26T14:17:44.910Z,1.08
2022-07-26T14:20:47.925Z,0.97
2022-07-26T14:23:51.607Z,1.00
2022-07-26T14:26:58.908Z,0.97
2022-07-26T14:30:05.426Z,1.10
2022-07-26T14:33:08.168Z,1.10
2022-07-26T14:36:13.247Z,0.90
2022-07-26T14:39:15.971Z,1.07
2022-07-26T14:42:18.743Z,0.90
2022-07-26T14:45:22.819Z,1.00
2022-07-26T14:48:51.874Z,0.80
2022-07-26T14:51:48.796Z,0.88
2022-07-26T14:54:51.658Z,1.00
2022-07-26T14:57:54.377Z,1.35
2022-07-26T15:00:58.660Z,0.88
2022-07-26T15:04:01.501Z,1.05
2022-07-26T15:07:04.474Z,1.38
2022-07-26T15:10:09.140Z,0.73
2022-07-26T15:13:12.829Z,1.02
2022-07-26T15:16:17.147Z,0.90
2022-07-26T15:19:25.141Z,1.00
2022-07-26T15:22:28.653Z,0.88
2022-07-26T15:25:31.329Z,1.08
2022-07-26T15:28:34.119Z,0.85
2022-07-26T15:31:38.254Z,0.90
2022-07-26T15:34:41.036Z,0.80
2022-07-26T15:37:44.793Z,0.80
2022-07-26T15:40:47.561Z,0.88
2022-07-26T15:43:50.286Z,1.10
2022-07-26T15:46:54.472Z,1.20
2022-07-26T15:49:57.822Z,1.15
2022-07-26T15:53:00.553Z,0.90
2022-07-26T15:56:03.675Z,0.90
2022-07-26T15:59:07.276Z,0.75
2022-07-26T16:02:11.549Z,0.80
2022-07-26T16:05:14.542Z,0.90
2022-07-26T16:08:17.438Z,0.75
2022-07-26T16:11:20.384Z,0.80
2022-07-26T16:14:23.204Z,1.05
2022-07-26T16:17:27.604Z,1.10
2022-07-26T16:20:30.356Z,1.10
2022-07-26T16:23:33.203Z,0.98
2022-07-26T16:26:36.630Z,1.00
2022-07-26T16:29:39.714Z,0.90
2022-07-26T16:32:44.307Z,0.80
2022-07-26T16:35:46.951Z,0.90
2022-07-26T16:38:49.868Z,1.00
2022-07-26T16:41:52.673Z,1.10
2022-07-26T16:44:55.616Z,1.10
2022-07-26T16:48:00.140Z,1.17
2022-07-26T16:51:03.180Z,1.20
2022-07-26T16:54:06.282Z,0.90
2022-07-26T16:57:09.351Z,1.30
2022-07-26T17:00:15.725Z,1.07
2022-07-26T17:03:19.913Z,0.83
2022-07-26T17:06:23.228Z,1.13
2022-07-26T17:09:25.968Z,1.00
2022-07-26T17:12:28.765Z,1.10
2022-07-26T17:15:31.651Z,1.00
2022-07-26T17:18:35.825Z,0.97
2022-07-26T17:21:38.758Z,0.80
2022-07-26T17:24:45.338Z,1.00
2022-07-26T17:27:48.082Z,1.00
2022-07-26T17:30:50.881Z,0.90
2022-07-26T17:33:54.993Z,1.10
2022-07-26T17:36:59.150Z,1.10
2022-07-26T17:40:01.911Z,0.90
2022-07-26T17:43:06.596Z,1.13
2022-07-26T17:46:09.380Z,1.10
2022-07-26T17:49:14.106Z,1.17
2022-07-26T17:52:17.164Z,1.07
2022-07-26T17:55:21.148Z,1.20
2022-07-26T17:58:23.937Z,1.40
2022-07-26T18:01:27.170Z,1.40
2022-07-26T18:04:31.208Z,1.70
2022-07-26T18:07:33.899Z,1.23
2022-07-26T18:10:36.953Z,1.40
2022-07-26T18:13:39.678Z,1.40
2022-07-26T18:16:47.362Z,1.20
2022-07-26T18:19:58.363Z,1.30
2022-07-26T18:23:02.678Z,1.40
2022-07-26T18:26:05.411Z,1.30
2022-07-26T18:29:08.623Z,1.20
2022-07-26T18:32:11.755Z,1.23
2022-07-26T18:35:15.882Z,1.30
2022-07-26T18:38:18.717Z,1.10
2022-07-26T18:41:21.619Z,1.10
2022-07-26T18:44:25.190Z,1.40
2022-07-26T18:47:27.928Z,1.20
2022-07-26T18:50:32.349Z,1.20
2022-07-26T18:53:35.082Z,1.40
2022-07-26T18:56:37.779Z,1.30
2022-07-26T18:59:40.485Z,1.30
2022-07-26T19:02:44.231Z,1.40
2022-07-26T19:05:48.293Z,1.30
2022-07-26T19:08:50.977Z,1.70
2022-07-26T19:11:53.702Z,1.30
2022-07-26T19:14:56.393Z,1.50
2022-07-26T19:17:59.522Z,1.70
2022-07-26T19:21:04.176Z,1.30
2022-07-26T19:24:07.204Z,1.50
2022-07-26T19:27:12.732Z,1.23
2022-07-26T19:30:15.511Z,1.30
2022-07-26T19:33:18.834Z,1.50
2022-07-26T19:36:26.222Z,1.50
2022-07-26T19:39:29.742Z,1.23
2022-07-26T19:42:32.788Z,1.70
2022-07-26T19:45:35.610Z,1.60
2022-07-26T19:48:38.512Z,1.50
2022-07-26T19:51:43.218Z,1.70
2022-07-26T19:54:46.142Z,1.57
2022-07-26T19:57:49.102Z,1.80
2022-07-26T20:00:51.803Z,1.97
2022-07-26T20:03:55.956Z,1.73
2022-07-26T20:07:00.186Z,1.90
2022-07-26T20:10:03.136Z,1.87
2022-07-26T20:13:06.849Z,1.60
2022-07-26T20:16:09.698Z,1.80
2022-07-26T20:19:13.265Z,1.70
2022-07-26T20:22:18.296Z,1.73
2022-07-26T20:25:22.146Z,1.73
2022-07-26T20:28:25.476Z,1.77
2022-07-26T20:31:28.323Z,1.70
2022-07-26T20:34:31.042Z,2.03
2022-07-26T20:37:35.191Z,2.00
2022-07-26T20:40:38.311Z,1.97
2022-07-26T20:43:41.918Z,1.90
2022-07-26T20:46:45.674Z,2.20
2022-07-26T20:49:48.821Z,2.17
2022-07-26T20:52:53.018Z,2.60
2022-07-26T20:55:56.046Z,2.50
2022-07-26T20:58:59.007Z,2.17
2022-07-26T21:02:02.292Z,2.10
2022-07-26T21:05:06.210Z,2.80
2022-07-26T21:08:10.294Z,2.40
2022-07-26T21:11:12.983Z,2.40
2022-07-26T21:14:15.703Z,2.50
2022-07-26T21:17:18.772Z,2.20
2022-07-26T21:20:22.216Z,1.90
2022-07-26T21:23:26.630Z,2.50
2022-07-26T21:26:29.445Z,2.40
2022-07-26T21:29:32.455Z,2.63
2022-07-26T21:32:40.676Z,2.53
2022-07-26T21:35:43.618Z,2.07
2022-07-26T21:38:47.708Z,2.10
2022-07-26T21:41:50.572Z,2.37
2022-07-26T21:44:53.260Z,2.00
2022-07-26T21:47:56.128Z,2.00
2022-07-26T21:50:59.089Z,1.93
2022-07-26T21:54:03.109Z,1.90
2022-07-26T21:57:05.884Z,1.90
2022-07-26T22:00:10.910Z,1.80
2022-07-26T22:03:13.620Z,1.80
2022-07-26T22:06:18.186Z,1.90
2022-07-26T22:09:22.336Z,2.00
2022-07-26T22:12:25.177Z,1.73
2022-07-26T22:15:27.868Z,2.00
2022-07-26T22:18:31.826Z,2.00
2022-07-26T22:21:34.508Z,1.90
2022-07-26T22:24:38.608Z,1.80
2022-07-26T22:27:41.756Z,1.90
2022-07-26T22:30:44.454Z,2.00
2022-07-26T22:33:47.418Z,1.90
2022-07-26T22:36:50.081Z,1.83
2022-07-26T22:39:54.175Z,2.40
2022-07-26T22:42:58.636Z,2.20
2022-07-26T22:46:01.846Z,2.13
2022-07-26T22:49:04.887Z,2.20
2022-07-26T22:52:13.631Z,2.20
2022-07-26T22:55:17.773Z,2.30
2022-07-26T22:58:21.158Z,2.23
2022-07-26T23:01:24.351Z,2.10
2022-07-26T23:04:27.326Z,2.20
2022-07-26T23:07:32.506Z,2.50
2022-07-26T23:10:36.710Z,2.20
2022-07-26T23:13:40.049Z,2.70
2022-07-26T23:16:42.842Z,2.60
2022-07-26T23:19:47.038Z,2.53
2022-07-26T23:22:49.759Z,2.60
2022-07-26T23:25:53.821Z,2.50
2022-07-26T23:28:56.562Z,2.03
2022-07-26T23:32:00.000Z,2.73
2022-07-26T23:35:02.909Z,2.50
2022-07-26T23:38:05.604Z,2.63
2022-07-26T23:41:09.712Z,2.60
2022-07-26T23:44:12.444Z,2.80
2022-07-26T23:47:15.282Z,3.00
2022-07-26T23:50:18.929Z,2.70
2022-07-26T23:53:26.449Z,2.57
2022-07-26T23:56:31.206Z,2.50
2022-07-26T23:59:34.270Z,2.90
